Time;durP1;ratioP1;P1;durP2;ratioP2;P2;SDS_P1;SDS_P2;PMS_P1;PMS_P2;Temp;Humidity;BMP_temperature;BMP_pressure;BME280_temperature;BME280_humidity;BME280_pressure;Samples;Min_cycle;Max_cycle;Signal;HPM_P1;HPM_P2
2022/03/20 00:00:10;;;;;;;10.38;7.20;;;3.70;55.90;;;;;;5031316;28;20048;-72
2022/03/20 00:02:37;;;;;;;9.90;7.32;;;3.50;56.30;;;;;;5033100;28;20128;-75
2022/03/20 00:05:05;;;;;;;11.15;6.90;;;3.70;56.60;;;;;;5035486;28;20049;-74
2022/03/20 00:07:34;;;;;;;10.10;6.90;;;3.70;56.20;;;;;;5035437;28;20047;-71
2022/03/20 00:10:03;;;;;;;9.77;7.10;;;3.70;56.00;;;;;;5033890;28;20043;-74
2022/03/20 00:12:31;;;;;;;8.40;6.63;;;3.60;56.10;;;;;;5022770;28;20070;-72
2022/03/20 00:14:58;;;;;;;12.38;8.10;;;3.50;56.10;;;;;;5015422;28;20038;-75
2022/03/20 00:17:25;;;;;;;11.55;8.00;;;3.50;56.30;;;;;;5015265;28;20458;-73
2022/03/20 00:19:52;;;;;;;12.60;8.52;;;3.40;56.40;;;;;;5015149;28;20057;-75
2022/03/20 00:22:20;;;;;;;9.35;7.65;;;3.60;56.90;;;;;;5015564;28;20121;-79
2022/03/20 00:24:47;;;;;;;10.10;7.00;;;3.40;56.70;;;;;;5015048;28;20042;-72
2022/03/20 00:27:16;;;;;;;9.40;6.93;;;3.40;56.30;;;;;;5014585;28;20048;-69
2022/03/20 00:29:44;;;;;;;9.55;7.05;;;3.40;56.10;;;;;;5014884;28;20034;-75
2022/03/20 00:32:13;;;;;;;8.07;5.95;;;3.50;56.00;;;;;;5014815;28;20050;-75
2022/03/20 00:34:41;;;;;;;10.52;6.95;;;3.60;55.90;;;;;;5014984;28;20112;-71
2022/03/20 00:37:09;;;;;;;8.73;6.60;;;3.50;56.10;;;;;;5015079;28;20053;-72
2022/03/20 00:39:36;;;;;;;8.68;6.65;;;3.40;56.30;;;;;;5014877;28;20068;-74
2022/03/20 00:42:05;;;;;;;17.98;9.90;;;3.40;56.50;;;;;;5014788;28;20034;-72
2022/03/20 00:44:32;;;;;;;40.60;21.52;;;3.40;57.60;;;;;;5015074;28;20054;-80
2022/03/20 00:46:59;;;;;;;9.05;8.02;;;3.50;58.00;;;;;;5014360;28;20038;-73
2022/03/20 00:49:27;;;;;;;8.10;6.97;;;3.40;56.70;;;;;;4997590;28;20608;-71
2022/03/20 00:51:54;;;;;;;8.63;6.57;;;3.50;56.60;;;;;;5014272;28;20647;-77
2022/03/20 00:54:22;;;;;;;8.65;6.57;;;3.20;56.90;;;;;;5014842;28;20088;-74
2022/03/20 00:56:49;;;;;;;9.43;6.57;;;3.20;57.00;;;;;;5013980;28;20060;-72
2022/03/20 00:59:16;;;;;;;8.65;6.93;;;3.10;57.30;;;;;;5015813;28;20046;-72
2022/03/20 01:01:45;;;;;;;7.53;6.10;;;3.30;57.30;;;;;;5033973;28;20042;-72
2022/03/20 01:04:13;;;;;;;6.97;6.07;;;2.90;57.40;;;;;;5034088;28;20136;-73
2022/03/20 01:06:40;;;;;;;7.07;6.15;;;2.80;58.20;;;;;;5034201;28;20048;-74
2022/03/20 01:09:08;;;;;;;10.77;7.40;;;3.10;58.20;;;;;;5033934;28;20049;-75
2022/03/20 01:11:35;;;;;;;11.18;7.05;;;3.20;57.70;;;;;;5033533;28;20038;-73
2022/03/20 01:14:02;;;;;;;8.18;6.43;;;3.10;58.00;;;;;;5034047;28;20068;-73
2022/03/20 01:16:30;;;;;;;10.85;6.95;;;2.90;58.50;;;;;;5033473;28;20047;-74
2022/03/20 01:18:57;;;;;;;7.38;6.32;;;2.90;58.40;;;;;;5034021;28;20063;-72
2022/03/20 01:21:24;;;;;;;7.20;6.38;;;3.00;58.40;;;;;;5033936;28;20041;-73
2022/03/20 01:23:52;;;;;;;10.57;6.65;;;3.00;58.20;;;;;;5033988;28;20429;-75
2022/03/20 01:26:19;;;;;;;7.72;6.90;;;2.80;58.40;;;;;;5033547;28;20044;-73
2022/03/20 01:28:47;;;;;;;9.73;6.32;;;2.80;58.50;;;;;;5033868;28;20048;-74
2022/03/20 01:31:16;;;;;;;9.27;6.65;;;2.60;58.80;;;;;;5016189;28;20044;-74
2022/03/20 01:33:44;;;;;;;8.27;6.75;;;2.60;59.10;;;;;;5033495;28;20041;-74
2022/03/20 01:36:11;;;;;;;9.32;6.30;;;2.70;58.90;;;;;;5033682;28;20045;-73
2022/03/20 01:38:39;;;;;;;8.95;7.00;;;2.60;59.40;;;;;;5033467;28;20052;-74
2022/03/20 01:41:06;;;;;;;8.15;6.75;;;2.60;59.30;;;;;;5033283;28;20037;-73
2022/03/20 01:43:33;;;;;;;7.95;6.63;;;2.70;59.10;;;;;;5033366;28;20556;-72
2022/03/20 01:46:02;;;;;;;8.95;6.93;;;2.70;59.10;;;;;;5033346;28;20048;-75
2022/03/20 01:48:29;;;;;;;11.32;7.43;;;2.70;58.90;;;;;;5033470;28;20382;-75
2022/03/20 01:50:57;;;;;;;9.88;7.22;;;2.50;59.20;;;;;;5033221;28;20433;-74
2022/03/20 01:53:26;;;;;;;9.40;6.85;;;2.60;59.30;;;;;;5033120;28;20052;-72
2022/03/20 01:55:54;;;;;;;11.23;7.25;;;2.70;59.10;;;;;;5032937;28;20057;-73
2022/03/20 01:58:21;;;;;;;13.13;7.13;;;2.80;59.20;;;;;;5033078;28;20042;-72
2022/03/20 02:00:48;;;;;;;9.23;7.38;;;2.70;59.20;;;;;;5033148;28;20163;-75
2022/03/20 02:03:15;;;;;;;8.57;7.18;;;2.70;59.60;;;;;;5032859;28;20091;-74
2022/03/20 02:05:43;;;;;;;9.88;7.10;;;2.70;59.50;;;;;;5033283;28;20049;-75
2022/03/20 02:08:13;;;;;;;9.02;7.05;;;2.60;59.70;;;;;;5033546;28;20048;-74
2022/03/20 02:10:43;;;;;;;8.40;7.47;;;2.60;59.80;;;;;;5032627;28;20051;-74
2022/03/20 02:13:10;;;;;;;10.02;7.43;;;2.60;59.80;;;;;;5032751;28;20037;-72
2022/03/20 02:15:37;;;;;;;11.85;7.95;;;2.70;60.10;;;;;;5032708;28;20524;-73
2022/03/20 02:18:07;;;;;;;9.10;7.20;;;2.60;60.30;;;;;;5032560;28;20502;-73
2022/03/20 02:20:34;;;;;;;10.13;7.85;;;2.60;60.60;;;;;;5032416;28;20037;-74
2022/03/20 02:23:01;;;;;;;9.50;7.25;;;2.60;60.30;;;;;;5033169;28;20048;-74
2022/03/20 02:25:29;;;;;;;9.30;7.10;;;2.70;60.30;;;;;;5031873;28;20045;-71
2022/03/20 02:27:56;;;;;;;13.30;7.75;;;2.70;60.40;;;;;;5015060;28;20489;-71
2022/03/20 02:30:27;;;;;;;11.57;7.85;;;2.80;60.50;;;;;;5032514;28;20132;-74
2022/03/20 02:32:55;;;;;;;13.07;7.38;;;2.70;60.20;;;;;;5015031;28;20071;-73
2022/03/20 02:35:22;;;;;;;11.98;7.43;;;2.80;60.20;;;;;;5032629;28;20042;-75
2022/03/20 02:37:52;;;;;;;12.40;7.72;;;2.80;60.40;;;;;;5033246;28;20042;-73
2022/03/20 02:40:21;;;;;;;9.80;7.43;;;2.90;60.40;;;;;;5032120;28;20385;-76
2022/03/20 02:42:50;;;;;;;11.50;7.45;;;2.70;59.60;;;;;;5032400;28;20052;-75
2022/03/20 02:45:20;;;;;;;8.45;7.05;;;2.70;59.80;;;;;;5032319;28;20046;-76
2022/03/20 02:47:49;;;;;;;9.02;7.53;;;2.70;59.70;;;;;;5015058;28;20041;-77
2022/03/20 02:50:25;;;;;;;10.50;7.07;;;2.60;59.60;;;;;;5032161;28;20078;-80
2022/03/20 02:53:14;;;;;;;8.27;6.70;;;2.50;59.60;;;;;;5032840;28;20401;-77
2022/03/20 02:55:45;;;;;;;7.72;6.03;;;2.60;59.50;;;;;;5032168;28;20045;-74
2022/03/20 02:58:15;;;;;;;9.65;6.97;;;2.70;59.00;;;;;;5032067;28;20132;-79
2022/03/20 03:00:44;;;;;;;7.83;7.03;;;2.60;58.90;;;;;;5031822;28;20144;-73
2022/03/20 03:03:12;;;;;;;8.77;6.75;;;2.60;58.90;;;;;;5032094;28;20064;-74
2022/03/20 03:05:41;;;;;;;9.82;7.28;;;2.60;59.00;;;;;;5032203;28;20073;-73
2022/03/20 03:10:57;;;;;;;7.50;6.63;;;2.40;58.60;;;;;;5031726;28;20033;-75
2022/03/20 03:13:36;;;;;;;8.27;6.68;;;2.40;58.60;;;;;;5014098;28;20493;-77
2022/03/20 03:16:11;;;;;;;9.30;6.80;;;2.50;58.60;;;;;;5031874;28;20906;-77
2022/03/20 03:18:41;;;;;;;9.88;7.47;;;2.50;58.40;;;;;;5031758;28;20395;-78
2022/03/20 03:21:17;;;;;;;9.18;7.38;;;2.40;58.90;;;;;;5031360;28;20059;-76
2022/03/20 03:23:44;;;;;;;10.50;7.25;;;2.50;59.50;;;;;;5031487;28;20033;-76
2022/03/20 03:26:12;;;;;;;8.32;6.55;;;2.50;59.50;;;;;;5031689;28;20037;-74
2022/03/20 03:28:40;;;;;;;9.13;7.18;;;2.50;59.80;;;;;;5031577;28;20723;-73
2022/03/20 03:31:11;;;;;;;8.68;6.95;;;2.50;59.70;;;;;;5031432;28;20048;-77
2022/03/20 03:35:41;;;;;;;9.88;7.63;;;2.50;59.80;;;;;;5031378;28;20099;-74
2022/03/20 03:36:28;;;;;;;8.95;7.20;;;2.50;60.40;;;;;;5031231;28;20037;-79
2022/03/20 03:38:55;;;;;;;8.65;6.90;;;2.40;60.30;;;;;;5030883;28;20053;-77
2022/03/20 03:41:24;;;;;;;7.82;6.65;;;2.40;60.50;;;;;;5031453;28;20046;-77
2022/03/20 03:43:52;;;;;;;9.18;6.85;;;2.50;60.40;;;;;;5031348;28;20045;-74
2022/03/20 03:46:19;;;;;;;8.23;7.05;;;2.50;60.20;;;;;;5031304;28;20038;-77
2022/03/20 03:48:46;;;;;;;10.20;6.47;;;2.50;59.70;;;;;;5031828;28;20041;-79
2022/03/20 03:51:14;;;;;;;8.18;6.78;;;2.30;59.60;;;;;;5031617;28;20065;-78
2022/03/20 03:53:41;;;;;;;8.27;6.10;;;2.30;59.70;;;;;;5031553;28;20045;-78
2022/03/20 03:56:08;;;;;;;8.93;6.75;;;2.30;59.70;;;;;;5031286;28;20053;-78
2022/03/20 03:58:36;;;;;;;9.88;6.43;;;2.20;59.60;;;;;;5031705;28;20034;-79
2022/03/20 04:01:03;;;;;;;8.25;7.05;;;2.20;59.60;;;;;;5031338;28;20477;-75
2022/03/20 04:03:30;;;;;;;8.13;6.43;;;2.00;59.50;;;;;;5031682;28;20071;-76
2022/03/20 04:06:04;;;;;;;8.57;6.55;;;2.00;59.90;;;;;;5031885;28;20408;-77
2022/03/20 04:08:34;;;;;;;7.40;6.65;;;2.00;60.70;;;;;;5014385;28;20451;-76
2022/03/20 04:11:01;;;;;;;8.90;6.50;;;2.00;61.00;;;;;;5031101;28;20052;-76
2022/03/20 04:13:29;;;;;;;9.25;6.70;;;2.00;61.10;;;;;;5031707;28;20547;-73
2022/03/20 04:15:56;;;;;;;6.95;6.18;;;1.90;61.30;;;;;;5031252;28;20037;-76
2022/03/20 04:18:23;;;;;;;7.97;6.70;;;1.80;61.30;;;;;;5031493;28;20081;-72
2022/03/20 04:20:52;;;;;;;9.25;6.05;;;1.80;61.40;;;;;;5031008;28;20496;-73
2022/03/20 04:26:05;;;;;;;9.68;6.85;;;1.70;61.20;;;;;;5031364;28;20076;-71
2022/03/20 04:28:32;;;;;;;10.85;7.07;;;1.60;61.50;;;;;;5031047;28;20045;-74
2022/03/20 04:31:00;;;;;;;9.93;7.00;;;1.60;61.70;;;;;;5031154;28;20420;-70
2022/03/20 04:33:29;;;;;;;9.40;6.70;;;1.60;61.80;;;;;;5031366;28;20140;-72
2022/03/20 04:35:57;;;;;;;7.85;6.50;;;1.50;61.70;;;;;;5030730;28;20057;-79
2022/03/20 04:38:26;;;;;;;9.20;6.68;;;1.50;61.80;;;;;;5030986;28;20050;-78
2022/03/20 04:40:53;;;;;;;8.65;7.05;;;1.50;61.60;;;;;;5030771;28;20057;-77
2022/03/20 04:43:21;;;;;;;8.65;6.68;;;1.50;61.70;;;;;;5030880;28;20046;-77
2022/03/20 04:45:48;;;;;;;8.63;6.45;;;1.40;61.70;;;;;;5030926;28;20374;-74
2022/03/20 04:59:18;;;;;;;11.77;7.20;;;1.60;62.10;;;;;;5034502;28;20049;-74
2022/03/20 05:01:46;;;;;;;11.13;7.10;;;1.50;62.50;;;;;;5034039;28;20044;-75
2022/03/20 05:04:14;;;;;;;9.82;6.80;;;1.60;61.90;;;;;;5034337;28;20069;-76
2022/03/20 05:06:45;;;;;;;8.85;6.57;;;1.50;62.10;;;;;;5034376;28;20129;-77
2022/03/20 05:14:44;;;;;;;8.57;7.05;;;1.60;62.00;;;;;;5034450;28;20397;-75
2022/03/20 05:17:12;;;;;;;10.27;6.43;;;1.50;62.10;;;;;;5033940;28;20041;-72
2022/03/20 05:19:40;;;;;;;10.77;7.72;;;1.60;61.60;;;;;;5033963;28;20069;-73
2022/03/20 05:22:12;;;;;;;9.70;6.75;;;1.60;61.50;;;;;;5033910;28;20120;-72
2022/03/20 05:24:40;;;;;;;8.80;6.50;;;1.70;61.50;;;;;;5034219;28;20052;-74
2022/03/20 05:27:07;;;;;;;11.98;6.95;;;1.70;61.50;;;;;;5033849;28;20056;-72
2022/03/20 05:29:35;;;;;;;9.20;6.82;;;1.70;61.20;;;;;;5033969;28;20520;-75
2022/03/20 05:32:04;;;;;;;10.43;7.13;;;1.70;61.10;;;;;;5033701;28;20425;-74
2022/03/20 05:34:33;;;;;;;8.20;6.47;;;1.70;60.90;;;;;;5017165;28;20088;-75
2022/03/20 05:37:04;;;;;;;10.13;7.43;;;1.70;60.70;;;;;;5033810;28;20103;-74
2022/03/20 05:39:33;;;;;;;10.68;7.22;;;1.70;60.80;;;;;;5034017;28;20051;-75
2022/03/20 05:42:00;;;;;;;9.88;6.97;;;1.60;61.50;;;;;;5034016;28;20397;-77
2022/03/20 05:44:27;;;;;;;10.38;7.85;;;1.60;61.30;;;;;;5034312;28;20049;-76
2022/03/20 05:46:55;;;;;;;9.75;7.43;;;1.80;61.30;;;;;;5033672;28;20309;-76
2022/03/20 05:49:23;;;;;;;8.95;7.00;;;1.50;61.40;;;;;;5033643;28;20397;-77
2022/03/20 05:51:51;;;;;;;7.65;6.63;;;1.60;62.30;;;;;;5033386;28;20041;-74
2022/03/20 05:54:18;;;;;;;8.57;7.18;;;1.70;61.90;;;;;;5033804;28;20045;-77
2022/03/20 05:59:35;;;;;;;12.07;6.70;;;1.40;62.00;;;;;;5032462;28;20060;-75
2022/03/20 06:02:03;;;;;;;9.90;7.13;;;1.40;62.70;;;;;;5032850;28;20060;-75
2022/03/20 06:04:31;;;;;;;9.32;7.43;;;1.40;62.80;;;;;;5015731;28;20548;-73
2022/03/20 06:06:59;;;;;;;8.40;7.45;;;1.40;62.80;;;;;;5033120;28;20503;-75
2022/03/20 06:09:26;;;;;;;8.68;7.35;;;1.50;62.60;;;;;;5033153;28;20064;-74
2022/03/20 06:11:53;;;;;;;11.40;7.35;;;1.80;62.50;;;;;;5032866;28;20388;-73
2022/03/20 06:14:21;;;;;;;11.90;7.95;;;1.80;62.00;;;;;;5015549;28;20700;-73
2022/03/20 06:16:48;;;;;;;12.25;7.65;;;1.70;61.90;;;;;;5032613;28;20045;-71
2022/03/20 06:19:16;;;;;;;8.38;6.55;;;1.60;61.70;;;;;;5032845;28;20453;-75
2022/03/20 06:21:45;;;;;;;9.60;7.60;;;1.60;62.10;;;;;;5032756;28;20469;-74
2022/03/20 06:24:13;;;;;;;10.02;7.40;;;1.80;61.30;;;;;;5032887;28;20493;-76
2022/03/20 06:26:40;;;;;;;12.05;6.63;;;1.80;61.50;;;;;;5015505;28;20068;-75
2022/03/20 06:29:09;;;;;;;10.93;7.30;;;1.90;61.60;;;;;;5032942;28;20124;-78
2022/03/20 06:31:36;;;;;;;8.35;6.50;;;1.80;61.40;;;;;;5032717;28;20048;-76
2022/03/20 06:34:04;;;;;;;10.43;6.72;;;1.80;61.60;;;;;;5032985;28;20462;-74
2022/03/20 06:36:32;;;;;;;10.52;7.72;;;2.00;61.70;;;;;;5032115;28;20033;-74
2022/03/20 06:38:59;;;;;;;11.18;7.57;;;2.00;61.70;;;;;;5032357;28;20465;-75
2022/03/20 06:41:27;;;;;;;11.70;7.63;;;2.10;62.20;;;;;;5032200;28;20037;-77
2022/03/20 06:43:55;;;;;;;10.25;7.68;;;2.20;62.70;;;;;;5032795;28;20544;-74
2022/03/20 06:46:22;;;;;;;10.48;8.30;;;2.20;62.90;;;;;;5032280;28;20045;-78
2022/03/20 06:48:51;;;;;;;13.25;8.30;;;2.30;63.20;;;;;;5032898;28;20124;-76
2022/03/20 06:51:21;;;;;;;10.05;7.80;;;2.50;62.80;;;;;;5032315;28;20057;-77
2022/03/20 06:53:50;;;;;;;10.57;7.20;;;2.60;62.80;;;;;;5032687;28;20052;-74
2022/03/20 06:56:18;;;;;;;11.15;7.88;;;2.60;62.80;;;;;;5032292;28;20076;-75
2022/03/20 06:58:45;;;;;;;13.73;8.13;;;2.60;63.00;;;;;;5032367;28;20069;-77
2022/03/20 07:01:12;;;;;;;14.55;8.95;;;2.60;63.40;;;;;;5032311;28;20052;-76
2022/03/20 07:03:40;;;;;;;12.60;8.90;;;2.80;63.60;;;;;;5014918;28;20116;-75
2022/03/20 07:06:07;;;;;;;13.20;8.60;;;2.90;63.00;;;;;;5031985;28;20045;-77
2022/03/20 07:08:34;;;;;;;10.85;8.25;;;3.10;63.00;;;;;;5032115;28;20045;-77
2022/03/20 07:11:02;;;;;;;12.35;9.00;;;3.30;62.70;;;;;;5031675;28;20064;-73
2022/03/20 07:16:16;;;;;;;14.50;9.05;;;3.30;62.70;;;;;;5032086;28;20684;-73
2022/03/20 07:18:45;;;;;;;14.07;9.10;;;3.20;62.90;;;;;;5031804;28;20054;-75
2022/03/20 07:21:19;;;;;;;9.27;7.63;;;3.30;62.10;;;;;;5031426;28;20553;-72
2022/03/20 07:23:46;;;;;;;13.50;8.63;;;3.30;61.00;;;;;;5032039;28;20049;-75
2022/03/20 07:31:45;;;;;;;8.50;6.90;;;3.30;58.20;;;;;;5031345;28;20048;-75
2022/03/20 07:34:13;;;;;;;8.98;6.72;;;3.30;58.00;;;;;;5031534;28;20497;-79
2022/03/20 07:36:40;;;;;;;9.50;6.43;;;3.20;56.30;;;;;;5031638;28;20049;-75
2022/03/20 07:39:07;;;;;;;10.63;6.30;;;3.30;56.00;;;;;;5031533;28;20470;-77
2022/03/20 07:41:34;;;;;;;8.05;6.55;;;3.60;56.90;;;;;;5031679;28;20037;-77
2022/03/20 07:44:02;;;;;;;12.23;6.82;;;3.70;56.50;;;;;;5019686;28;20070;-77
2022/03/20 07:46:29;;;;;;;9.15;6.85;;;3.80;56.60;;;;;;5011537;28;20404;-72
2022/03/20 07:48:58;;;;;;;8.73;6.93;;;3.80;55.70;;;;;;5011488;28;20138;-75
2022/03/20 07:51:26;;;;;;;7.72;6.72;;;3.70;56.00;;;;;;5011762;28;20042;-72
2022/03/20 07:53:53;;;;;;;8.07;6.47;;;3.70;56.10;;;;;;5013773;28;20037;-77
2022/03/20 07:56:22;;;;;;;25.20;15.68;;;4.10;57.40;;;;;;5021279;28;20045;-78
2022/03/20 07:58:50;;;;;;;14.73;10.23;;;4.40;56.10;;;;;;5020123;28;20115;-74
2022/03/20 08:01:17;;;;;;;38.72;18.75;;;4.60;54.90;;;;;;5019901;28;20113;-78
2022/03/20 08:03:50;;;;;;;25.02;16.17;;;4.50;54.50;;;;;;5006721;28;20556;-74
2022/03/20 08:06:17;;;;;;;21.10;14.68;;;4.80;55.90;;;;;;5021694;28;20381;-77
2022/03/20 08:08:45;;;;;;;14.52;10.45;;;5.00;54.50;;;;;;5022022;28;20041;-77
2022/03/20 08:11:12;;;;;;;8.95;6.80;;;5.00;53.70;;;;;;5023820;28;20049;-76
2022/03/20 08:13:40;;;;;;;8.70;6.40;;;4.60;52.80;;;;;;5019023;28;20041;-76
2022/03/20 08:16:09;;;;;;;8.65;6.20;;;4.50;52.10;;;;;;5018961;28;20125;-75
2022/03/20 08:18:37;;;;;;;7.70;5.95;;;4.60;52.10;;;;;;5019171;28;20073;-76
2022/03/20 08:21:05;;;;;;;10.10;6.40;;;4.90;52.90;;;;;;5020740;28;20579;-76
2022/03/20 08:23:32;;;;;;;10.50;6.05;;;5.00;51.70;;;;;;5022735;28;20040;-76
2022/03/20 08:26:00;;;;;;;7.72;5.78;;;5.30;51.10;;;;;;5023164;28;20052;-75
2022/03/20 08:28:27;;;;;;;8.60;6.30;;;5.00;50.50;;;;;;5024655;28;20041;-73
2022/03/20 08:30:54;;;;;;;8.25;6.43;;;5.00;50.60;;;;;;5007256;28;20073;-76
2022/03/20 08:33:22;;;;;;;7.72;5.38;;;5.30;50.50;;;;;;5005532;28;20045;-74
2022/03/20 08:35:49;;;;;;;8.13;5.70;;;5.40;49.90;;;;;;5007504;28;20033;-74
2022/03/20 08:38:17;;;;;;;8.32;5.57;;;5.70;50.00;;;;;;5024922;28;20052;-74
2022/03/20 08:40:44;;;;;;;7.85;6.03;;;5.60;50.00;;;;;;5023219;28;20037;-73
2022/03/20 08:43:15;;;;;;;9.57;6.38;;;5.50;50.70;;;;;;5007497;28;20505;-76
2022/03/20 08:45:44;;;;;;;8.30;6.40;;;5.30;51.90;;;;;;5023987;28;20088;-72
2022/03/20 08:48:11;;;;;;;9.43;5.80;;;5.60;51.30;;;;;;5023482;28;20467;-76
2022/03/20 08:50:39;;;;;;;7.90;6.18;;;5.50;51.30;;;;;;5030522;28;20038;-76
2022/03/20 08:53:06;;;;;;;8.73;6.00;;;5.80;52.10;;;;;;5029744;28;20052;-73
2022/03/20 08:55:34;;;;;;;8.20;6.07;;;5.80;50.40;;;;;;5022607;28;20117;-71
2022/03/20 08:58:01;;;;;;;8.98;6.03;;;5.80;50.00;;;;;;5014476;28;20042;-76
2022/03/20 09:00:29;;;;;;;8.85;6.22;;;6.00;49.90;;;;;;5021681;28;20041;-72
2022/03/20 09:02:56;;;;;;;7.03;6.25;;;6.10;49.40;;;;;;5034154;28;20046;-73
2022/03/20 09:05:27;;;;;;;9.45;6.80;;;6.00;49.40;;;;;;5000973;28;20041;-75
2022/03/20 09:07:57;;;;;;;7.82;6.00;;;6.20;49.50;;;;;;5043635;28;20044;-73
2022/03/20 09:10:25;;;;;;;6.93;5.38;;;6.10;49.60;;;;;;5032867;28;20041;-72
2022/03/20 09:12:55;;;;;;;8.13;5.82;;;6.10;49.20;;;;;;5033421;28;20041;-75
2022/03/20 09:15:23;;;;;;;8.85;5.63;;;6.20;49.30;;;;;;5032248;28;20346;-73
2022/03/20 09:20:43;;;;;;;8.95;6.20;;;6.20;48.50;;;;;;5032172;28;20052;-73
2022/03/20 09:23:12;;;;;;;7.20;5.50;;;6.40;47.90;;;;;;5034287;28;20047;-72
2022/03/20 09:25:45;;;;;;;8.02;5.72;;;6.50;47.60;;;;;;5016008;28;20116;-72
2022/03/20 09:28:13;;;;;;;7.95;5.97;;;6.60;47.40;;;;;;5032335;28;20049;-75
2022/03/20 09:30:41;;;;;;;7.45;5.65;;;6.90;48.20;;;;;;5031962;28;20041;-70
2022/03/20 09:33:10;;;;;;;8.18;5.90;;;6.80;48.50;;;;;;5015092;28;20489;-74
2022/03/20 09:35:39;;;;;;;6.95;5.18;;;6.90;48.30;;;;;;5030864;28;20463;-73
2022/03/20 09:38:09;;;;;;;7.10;5.05;;;7.00;48.00;;;;;;5031332;28;20125;-74
2022/03/20 09:40:37;;;;;;;7.90;5.85;;;7.10;47.10;;;;;;5022445;28;20140;-74
2022/03/20 09:43:07;;;;;;;8.15;5.80;;;7.10;48.00;;;;;;5020908;28;20072;-73
2022/03/20 09:45:35;;;;;;;7.97;6.03;;;6.90;47.80;;;;;;5022530;28;20044;-74
2022/03/20 09:48:04;;;;;;;6.55;5.13;;;6.80;48.00;;;;;;5021541;28;20121;-72
2022/03/20 09:50:32;;;;;;;35.47;16.63;;;7.00;47.80;;;;;;5026398;28;20056;-75
2022/03/20 09:53:00;;;;;;;22.00;12.82;;;7.40;49.60;;;;;;5022870;28;20088;-74
2022/03/20 09:55:28;;;;;;;23.92;13.70;;;7.80;49.10;;;;;;5022392;28;20470;-73
2022/03/20 09:57:56;;;;;;;7.45;6.05;;;7.80;47.20;;;;;;5005401;28;20552;-74
2022/03/20 10:00:24;;;;;;;8.07;5.80;;;7.70;46.30;;;;;;5018140;28;20048;-73
2022/03/20 10:02:52;;;;;;;7.28;5.63;;;7.60;46.70;;;;;;5032906;28;20513;-72
2022/03/20 10:05:26;;;;;;;7.18;5.15;;;7.50;46.70;;;;;;5028649;28;20049;-74
2022/03/20 10:07:53;;;;;;;7.97;5.95;;;7.90;47.20;;;;;;5040635;28;20392;-75
2022/03/20 10:10:32;;;;;;;10.43;5.50;;;8.10;46.70;;;;;;5052865;28;20048;-79
2022/03/20 10:13:00;;;;;;;7.03;5.22;;;8.70;47.70;;;;;;5052310;28;20428;-70
2022/03/20 10:15:35;;;;;;;7.53;5.28;;;8.70;45.80;;;;;;5052882;28;20056;-76
2022/03/20 10:18:24;;;;;;;16.52;10.35;;;8.10;45.30;;;;;;5052687;28;20080;-77
2022/03/20 10:20:55;;;;;;;76.28;41.00;;;8.30;46.80;;;;;;5052780;28;20396;-73
2022/03/20 10:23:37;;;;;;;10.68;8.13;;;8.60;46.60;;;;;;5052687;28;20041;-72
2022/03/20 10:26:16;;;;;;;8.07;5.93;;;8.10;46.50;;;;;;5052337;28;20064;-73
2022/03/20 10:28:55;;;;;;;46.08;25.83;;;8.40;45.20;;;;;;5052693;28;20412;-75
2022/03/20 10:31:22;;;;;;;37.78;21.55;;;9.00;47.40;;;;;;5034935;28;20052;-78
2022/03/20 10:34:05;;;;;;;9.40;6.65;;;9.60;47.50;;;;;;5052014;28;20136;-73
2022/03/20 10:36:36;;;;;;;7.10;5.45;;;9.60;43.90;;;;;;5052594;28;20041;-72
2022/03/20 10:39:15;;;;;;;9.95;5.65;;;9.30;43.80;;;;;;5052316;28;20045;-77
2022/03/20 10:41:45;;;;;;;7.85;5.57;;;9.20;42.90;;;;;;5052226;28;20062;-75
2022/03/20 10:44:31;;;;;;;7.75;5.63;;;8.90;43.40;;;;;;5034563;28;20053;-77
2022/03/20 10:47:14;;;;;;;7.15;5.15;;;8.90;43.70;;;;;;5034690;28;20060;-76
2022/03/20 10:49:47;;;;;;;6.82;5.22;;;8.90;44.40;;;;;;5052106;28;20041;-73
2022/03/20 10:52:20;;;;;;;7.78;5.38;;;8.80;42.40;;;;;;5052377;28;20041;-76
2022/03/20 10:54:51;;;;;;;8.05;5.40;;;8.90;42.60;;;;;;5025146;28;20041;-76
2022/03/20 10:57:20;;;;;;;5.93;4.80;;;9.10;41.60;;;;;;5032199;28;20044;-72
2022/03/20 10:59:58;;;;;;;7.68;4.75;;;8.70;42.30;;;;;;5014578;28;20099;-73
2022/03/20 11:02:26;;;;;;;6.47;4.75;;;9.00;42.00;;;;;;5052233;28;20041;-72
2022/03/20 11:04:54;;;;;;;7.03;4.90;;;8.70;40.30;;;;;;5051822;28;20037;-73
2022/03/20 11:07:26;;;;;;;5.32;4.35;;;8.30;40.80;;;;;;5035460;28;20038;-74
2022/03/20 11:09:55;;;;;;;7.63;5.07;;;8.90;41.80;;;;;;5002188;28;20056;-75
2022/03/20 11:12:34;;;;;;;6.47;4.78;;;9.40;41.50;;;;;;5020125;28;20053;-73
2022/03/20 11:15:08;;;;;;;7.85;4.97;;;9.30;39.90;;;;;;5004175;28;20080;-74
2022/03/20 11:17:45;;;;;;;7.45;5.43;;;9.40;39.90;;;;;;5003905;28;20836;-75
2022/03/20 11:20:15;;;;;;;9.05;4.93;;;8.90;40.40;;;;;;5003628;28;20046;-73
2022/03/20 11:22:49;;;;;;;7.03;4.70;;;9.60;40.00;;;;;;5019917;28;20117;-74
2022/03/20 11:25:20;;;;;;;5.70;4.47;;;9.30;39.40;;;;;;5019195;28;20045;-73
2022/03/20 11:27:55;;;;;;;6.03;4.72;;;9.70;39.70;;;;;;5020556;28;20088;-73
2022/03/20 11:30:27;;;;;;;11.45;8.02;;;10.10;39.40;;;;;;4994214;28;20070;-77
2022/03/20 11:33:00;;;;;;;8.38;7.00;;;10.90;44.00;;;;;;5028658;28;20124;-71
2022/03/20 11:35:30;;;;;;;23.85;15.75;;;10.60;40.40;;;;;;5029430;28;20048;-70
2022/03/20 11:38:16;;;;;;;35.75;20.20;;;10.50;41.70;;;;;;5020877;28;20045;-70
2022/03/20 11:41:08;;;;;;;13.25;8.90;;;10.30;41.60;;;;;;5021638;28;20666;-71
2022/03/20 11:43:38;;;;;;;7.82;5.68;;;10.30;41.20;;;;;;5021681;28;20045;-82
2022/03/20 11:46:33;;;;;;;7.57;5.25;;;10.50;39.30;;;;;;5019957;28;20044;-74
2022/03/20 11:49:19;;;;;;;6.35;4.78;;;10.00;38.80;;;;;;5003911;28;20049;-74
2022/03/20 11:51:54;;;;;;;7.47;5.07;;;10.00;40.40;;;;;;5019996;28;20673;-73
2022/03/20 11:54:28;;;;;;;6.75;4.68;;;11.10;39.50;;;;;;5019948;28;20046;-75
2022/03/20 11:56:55;;;;;;;8.40;5.20;;;10.90;37.90;;;;;;5020778;28;20030;-74
2022/03/20 11:59:48;;;;;;;6.60;4.90;;;11.20;39.30;;;;;;5018678;28;20116;-78
2022/03/20 12:02:47;;;;;;;7.32;4.97;;;10.70;38.70;;;;;;5022052;28;20095;-75
2022/03/20 12:05:56;;;;;;;8.70;5.50;;;11.50;38.70;;;;;;5022423;28;20046;-73
2022/03/20 12:08:34;;;;;;;8.52;5.00;;;11.70;42.20;;;;;;5000860;28;20065;-74
2022/03/20 12:11:19;;;;;;;7.93;4.53;;;12.40;40.70;;;;;;5018928;28;20044;-73
2022/03/20 12:13:52;;;;;;;8.75;5.28;;;11.70;37.70;;;;;;5019560;28;20390;-73
2022/03/20 12:16:45;;;;;;;6.82;4.60;;;11.10;40.30;;;;;;5019255;28;20486;-75
2022/03/20 12:19:15;;;;;;;7.45;5.00;;;11.50;38.70;;;;;;5018837;28;20049;-73
2022/03/20 12:22:01;;;;;;;8.15;4.93;;;11.20;38.30;;;;;;5020068;28;20037;-73
2022/03/20 12:24:34;;;;;;;7.32;5.00;;;11.00;40.30;;;;;;5020465;28;20029;-72
2022/03/20 12:27:22;;;;;;;7.20;3.85;;;11.80;39.20;;;;;;5000499;28;20172;-74
2022/03/20 12:29:57;;;;;;;8.60;4.90;;;12.00;37.80;;;;;;4996477;28;20416;-73
2022/03/20 12:32:27;;;;;;;6.63;4.47;;;13.60;40.30;;;;;;4993617;28;20425;-75
2022/03/20 12:34:58;;;;;;;6.78;4.35;;;13.90;38.50;;;;;;5003645;28;20056;-76
2022/03/20 12:40:28;;;;;;;5.65;4.07;;;14.20;35.60;;;;;;5032774;28;20045;-74
2022/03/20 12:43:20;;;;;;;7.43;5.30;;;12.60;35.50;;;;;;5050293;28;20041;-73
2022/03/20 12:45:55;;;;;;;8.43;7.57;;;13.70;36.40;;;;;;5033272;28;20052;-75
2022/03/20 12:48:24;;;;;;;8.80;5.50;;;15.30;34.90;;;;;;5017245;28;20052;-75
2022/03/20 12:51:11;;;;;;;6.55;4.03;;;16.30;33.90;;;;;;5016781;28;20127;-74
2022/03/20 12:53:41;;;;;;;6.20;3.83;;;17.20;34.10;;;;;;5016516;28;20123;-73
2022/03/20 12:58:45;;;;;;;5.75;3.75;;;16.90;33.60;;;;;;5030280;28;20044;-74
2022/03/20 13:01:13;;;;;;;6.68;3.97;;;17.70;33.20;;;;;;4996583;28;20112;-73
2022/03/20 13:03:42;;;;;;;7.05;3.90;;;17.50;32.50;;;;;;5012958;28;20048;-74
2022/03/20 13:06:10;;;;;;;6.85;4.00;;;17.80;32.00;;;;;;4996238;28;20480;-74
2022/03/20 13:08:39;;;;;;;6.65;3.72;;;18.30;33.10;;;;;;5013614;28;20149;-74
2022/03/20 13:14:13;;;;;;;7.22;3.70;;;20.00;31.70;;;;;;5016912;28;20080;-72
2022/03/20 13:17:07;;;;;;;7.72;3.85;;;22.00;30.80;;;;;;5016310;28;20072;-74
2022/03/20 13:19:37;;;;;;;8.07;4.13;;;18.20;31.60;;;;;;4996088;28;20107;-73
2022/03/20 13:22:07;;;;;;;7.55;4.68;;;18.60;31.20;;;;;;5012632;28;20115;-74
2022/03/20 13:24:37;;;;;;;7.20;4.07;;;20.90;30.50;;;;;;5000365;28;20041;-71
2022/03/20 13:27:10;;;;;;;8.60;3.60;;;20.70;29.30;;;;;;5016107;28;20046;-72
2022/03/20 13:29:42;;;;;;;7.63;4.10;;;17.10;30.30;;;;;;5033647;28;20049;-73
2022/03/20 13:32:12;;;;;;;8.13;4.20;;;16.70;31.30;;;;;;5033463;28;20110;-73
2022/03/20 13:34:45;;;;;;;7.50;3.55;;;17.10;31.50;;;;;;5006357;28;20137;-73
2022/03/20 13:37:18;;;;;;;6.45;3.83;;;20.00;29.70;;;;;;5004486;28;20071;-74
2022/03/20 13:39:52;;;;;;;8.98;4.80;;;21.70;29.40;;;;;;5009764;28;20119;-73
2022/03/20 13:42:26;;;;;;;7.72;3.72;;;21.80;29.00;;;;;;5010889;28;20464;-73
2022/03/20 13:44:54;;;;;;;6.43;3.78;;;21.90;28.90;;;;;;5013454;28;20077;-75
2022/03/20 13:47:22;;;;;;;5.65;3.33;;;21.90;28.90;;;;;;5032129;28;20540;-74
2022/03/20 13:49:53;;;;;;;7.13;4.20;;;21.90;28.20;;;;;;5019213;28;20037;-72
2022/03/20 13:55:11;;;;;;;6.10;3.50;;;23.60;28.90;;;;;;5033507;28;20481;-73